sensor_id;sensor_type;location;lat;lon;timestamp;P1;durP1;ratioP1;P2;durP2;ratioP2
22995;SDS011;11664;49.774;8.650;2023-05-07T00:02:11;5.57;;;5.28;;
22995;SDS011;11664;49.774;8.650;2023-05-07T00:04:43;4.93;;;4.55;;
22995;SDS011;11664;49.774;8.650;2023-05-07T00:07:18;4.75;;;4.35;;
22995;SDS011;11664;49.774;8.650;2023-05-07T00:09:43;5.32;;;4.97;;
22995;SDS011;11664;49.774;8.650;2023-05-07T00:12:18;6.45;;;6.10;;
22995;SDS011;11664;49.774;8.650;2023-05-07T00:14:50;5.05;;;4.68;;
22995;SDS011;11664;49.774;8.650;2023-05-07T00:17:18;5.45;;;5.05;;
22995;SDS011;11664;49.774;8.650;2023-05-07T00:19:47;6.60;;;6.05;;
22995;SDS011;11664;49.774;8.650;2023-05-07T00:22:18;7.32;;;6.93;;
22995;SDS011;11664;49.774;8.650;2023-05-07T00:24:44;8.07;;;7.68;;
22995;SDS011;11664;49.774;8.650;2023-05-07T00:27:25;7.45;;;7.03;;
22995;SDS011;11664;49.774;8.650;2023-05-07T00:29:53;10.77;;;10.05;;
22995;SDS011;11664;49.774;8.650;2023-05-07T00:32:19;8.70;;;8.15;;
22995;SDS011;11664;49.774;8.650;2023-05-07T00:34:50;9.48;;;8.82;;
22995;SDS011;11664;49.774;8.650;2023-05-07T00:37:22;6.57;;;6.18;;
22995;SDS011;11664;49.774;8.650;2023-05-07T00:39:47;10.40;;;9.75;;
22995;SDS011;11664;49.774;8.650;2023-05-07T00:42:14;6.88;;;6.47;;
22995;SDS011;11664;49.774;8.650;2023-05-07T00:44:47;5.53;;;5.13;;
22995;SDS011;11664;49.774;8.650;2023-05-07T00:47:18;6.00;;;5.60;;
22995;SDS011;11664;49.774;8.650;2023-05-07T00:49:50;5.60;;;5.30;;
22995;SDS011;11664;49.774;8.650;2023-05-07T00:54:52;7.20;;;6.78;;
22995;SDS011;11664;49.774;8.650;2023-05-07T00:57:25;6.97;;;6.57;;
22995;SDS011;11664;49.774;8.650;2023-05-07T00:59:51;8.02;;;7.53;;
22995;SDS011;11664;49.774;8.650;2023-05-07T01:02:23;6.97;;;6.53;;
22995;SDS011;11664;49.774;8.650;2023-05-07T01:04:48;4.85;;;4.55;;
22995;SDS011;11664;49.774;8.650;2023-05-07T01:07:17;4.72;;;4.35;;
22995;SDS011;11664;49.774;8.650;2023-05-07T01:09:49;4.55;;;4.25;;
22995;SDS011;11664;49.774;8.650;2023-05-07T01:12:18;4.82;;;4.53;;
22995;SDS011;11664;49.774;8.650;2023-05-07T01:14:44;4.20;;;3.95;;
22995;SDS011;11664;49.774;8.650;2023-05-07T01:17:09;5.70;;;5.18;;
22995;SDS011;11664;49.774;8.650;2023-05-07T01:19:38;4.53;;;4.32;;
22995;SDS011;11664;49.774;8.650;2023-05-07T01:22:08;6.70;;;6.30;;
22995;SDS011;11664;49.774;8.650;2023-05-07T01:27:17;3.80;;;3.60;;
22995;SDS011;11664;49.774;8.650;2023-05-07T01:29:42;3.95;;;3.75;;
22995;SDS011;11664;49.774;8.650;2023-05-07T01:35:12;4.60;;;4.20;;
22995;SDS011;11664;49.774;8.650;2023-05-07T01:37:52;4.22;;;3.85;;
22995;SDS011;11664;49.774;8.650;2023-05-07T01:40:22;4.28;;;4.07;;
22995;SDS011;11664;49.774;8.650;2023-05-07T01:42:49;4.05;;;3.70;;
22995;SDS011;11664;49.774;8.650;2023-05-07T01:45:21;4.80;;;4.43;;
22995;SDS011;11664;49.774;8.650;2023-05-07T01:47:47;5.05;;;4.75;;
22995;SDS011;11664;49.774;8.650;2023-05-07T01:50:14;4.65;;;4.35;;
22995;SDS011;11664;49.774;8.650;2023-05-07T01:52:41;5.43;;;5.00;;
22995;SDS011;11664;49.774;8.650;2023-05-07T01:58:14;6.53;;;6.15;;
22995;SDS011;11664;49.774;8.650;2023-05-07T02:00:48;8.93;;;5.00;;
22995;SDS011;11664;49.774;8.650;2023-05-07T02:03:14;4.88;;;4.57;;
22995;SDS011;11664;49.774;8.650;2023-05-07T02:05:39;4.25;;;3.95;;
22995;SDS011;11664;49.774;8.650;2023-05-07T02:08:14;4.10;;;3.80;;
22995;SDS011;11664;49.774;8.650;2023-05-07T02:10:46;3.70;;;3.50;;
22995;SDS011;11664;49.774;8.650;2023-05-07T02:13:19;4.28;;;3.97;;
22995;SDS011;11664;49.774;8.650;2023-05-07T02:15:47;3.90;;;3.70;;
22995;SDS011;11664;49.774;8.650;2023-05-07T02:18:15;4.43;;;4.22;;
22995;SDS011;11664;49.774;8.650;2023-05-07T02:20:44;5.38;;;3.25;;
22995;SDS011;11664;49.774;8.650;2023-05-07T02:23:16;6.07;;;5.78;;
22995;SDS011;11664;49.774;8.650;2023-05-07T02:25:47;7.82;;;7.38;;
22995;SDS011;11664;49.774;8.650;2023-05-07T02:31:34;6.57;;;6.18;;
22995;SDS011;11664;49.774;8.650;2023-05-07T02:34:06;7.03;;;6.65;;
22995;SDS011;11664;49.774;8.650;2023-05-07T02:36:38;7.70;;;7.30;;
22995;SDS011;11664;49.774;8.650;2023-05-07T02:39:16;8.18;;;7.78;;
22995;SDS011;11664;49.774;8.650;2023-05-07T02:41:48;7.00;;;6.60;;
22995;SDS011;11664;49.774;8.650;2023-05-07T02:44:19;8.38;;;7.95;;
22995;SDS011;11664;49.774;8.650;2023-05-07T02:46:45;5.60;;;5.30;;
22995;SDS011;11664;49.774;8.650;2023-05-07T02:49:26;5.00;;;4.70;;
22995;SDS011;11664;49.774;8.650;2023-05-07T02:51:57;5.05;;;3.75;;
22995;SDS011;11664;49.774;8.650;2023-05-07T02:54:35;3.97;;;3.25;;
22995;SDS011;11664;49.774;8.650;2023-05-07T02:57:01;4.20;;;3.97;;
22995;SDS011;11664;49.774;8.650;2023-05-07T02:59:27;6.82;;;6.32;;
22995;SDS011;11664;49.774;8.650;2023-05-07T03:01:52;6.50;;;5.93;;
22995;SDS011;11664;49.774;8.650;2023-05-07T03:04:18;5.47;;;4.97;;
22995;SDS011;11664;49.774;8.650;2023-05-07T03:06:46;5.35;;;4.95;;
22995;SDS011;11664;49.774;8.650;2023-05-07T03:09:15;5.43;;;5.03;;
22995;SDS011;11664;49.774;8.650;2023-05-07T03:11:41;4.18;;;3.88;;
22995;SDS011;11664;49.774;8.650;2023-05-07T03:14:06;5.30;;;4.95;;
22995;SDS011;11664;49.774;8.650;2023-05-07T03:16:35;6.32;;;5.82;;
22995;SDS011;11664;49.774;8.650;2023-05-07T03:19:01;7.93;;;7.43;;
22995;SDS011;11664;49.774;8.650;2023-05-07T03:21:29;13.73;;;13.02;;
22995;SDS011;11664;49.774;8.650;2023-05-07T03:23:58;11.75;;;11.15;;
22995;SDS011;11664;49.774;8.650;2023-05-07T03:26:27;4.45;;;4.05;;
22995;SDS011;11664;49.774;8.650;2023-05-07T03:28:53;6.50;;;6.07;;
22995;SDS011;11664;49.774;8.650;2023-05-07T03:31:36;8.65;;;8.15;;
22995;SDS011;11664;49.774;8.650;2023-05-07T03:34:12;3.80;;;3.40;;
22995;SDS011;11664;49.774;8.650;2023-05-07T03:36:37;10.95;;;10.38;;
22995;SDS011;11664;49.774;8.650;2023-05-07T03:39:03;10.30;;;9.75;;
22995;SDS011;11664;49.774;8.650;2023-05-07T03:41:29;9.48;;;8.98;;
22995;SDS011;11664;49.774;8.650;2023-05-07T03:44:13;7.57;;;7.13;;
22995;SDS011;11664;49.774;8.650;2023-05-07T03:46:45;8.43;;;7.85;;
22995;SDS011;11664;49.774;8.650;2023-05-07T03:52:05;6.13;;;5.72;;
22995;SDS011;11664;49.774;8.650;2023-05-07T03:54:30;4.55;;;4.35;;
22995;SDS011;11664;49.774;8.650;2023-05-07T03:56:59;6.05;;;5.70;;
22995;SDS011;11664;49.774;8.650;2023-05-07T03:59:37;9.52;;;9.02;;
22995;SDS011;11664;49.774;8.650;2023-05-07T04:02:03;6.55;;;6.07;;
22995;SDS011;11664;49.774;8.650;2023-05-07T04:04:31;6.72;;;6.43;;
22995;SDS011;11664;49.774;8.650;2023-05-07T04:07:03;11.52;;;10.93;;
22995;SDS011;11664;49.774;8.650;2023-05-07T04:09:38;7.75;;;7.35;;
22995;SDS011;11664;49.774;8.650;2023-05-07T04:12:19;5.43;;;5.13;;
22995;SDS011;11664;49.774;8.650;2023-05-07T04:14:44;4.85;;;4.55;;
22995;SDS011;11664;49.774;8.650;2023-05-07T04:17:10;4.57;;;4.38;;
22995;SDS011;11664;49.774;8.650;2023-05-07T04:19:35;7.65;;;7.25;;
22995;SDS011;11664;49.774;8.650;2023-05-07T04:22:01;5.75;;;5.35;;
22995;SDS011;11664;49.774;8.650;2023-05-07T04:24:33;5.80;;;5.50;;
22995;SDS011;11664;49.774;8.650;2023-05-07T04:27:01;7.30;;;6.90;;
22995;SDS011;11664;49.774;8.650;2023-05-07T04:29:27;5.68;;;5.38;;
22995;SDS011;11664;49.774;8.650;2023-05-07T04:31:59;7.57;;;7.18;;
22995;SDS011;11664;49.774;8.650;2023-05-07T04:34:28;6.30;;;5.90;;
22995;SDS011;11664;49.774;8.650;2023-05-07T04:36:53;5.05;;;4.75;;
22995;SDS011;11664;49.774;8.650;2023-05-07T04:39:19;5.13;;;4.82;;
22995;SDS011;11664;49.774;8.650;2023-05-07T04:41:44;4.22;;;4.03;;
22995;SDS011;11664;49.774;8.650;2023-05-07T04:44:13;3.90;;;3.70;;
22995;SDS011;11664;49.774;8.650;2023-05-07T04:46:45;4.40;;;4.10;;
22995;SDS011;11664;49.774;8.650;2023-05-07T04:49:16;6.88;;;6.40;;
22995;SDS011;11664;49.774;8.650;2023-05-07T04:51:42;4.25;;;3.85;;
22995;SDS011;11664;49.774;8.650;2023-05-07T04:54:13;6.32;;;5.93;;
22995;SDS011;11664;49.774;8.650;2023-05-07T04:56:42;7.47;;;7.07;;
22995;SDS011;11664;49.774;8.650;2023-05-07T04:59:08;4.45;;;4.25;;
22995;SDS011;11664;49.774;8.650;2023-05-07T05:01:43;4.78;;;4.50;;
22995;SDS011;11664;49.774;8.650;2023-05-07T05:04:15;4.30;;;3.90;;
22995;SDS011;11664;49.774;8.650;2023-05-07T05:06:43;3.97;;;3.67;;
22995;SDS011;11664;49.774;8.650;2023-05-07T05:09:09;4.20;;;3.80;;
22995;SDS011;11664;49.774;8.650;2023-05-07T05:11:34;4.28;;;3.97;;
22995;SDS011;11664;49.774;8.650;2023-05-07T05:14:12;4.00;;;3.70;;
22995;SDS011;11664;49.774;8.650;2023-05-07T05:16:44;3.80;;;3.60;;
22995;SDS011;11664;49.774;8.650;2023-05-07T05:19:12;3.63;;;3.42;;
22995;SDS011;11664;49.774;8.650;2023-05-07T05:21:38;3.38;;;3.17;;
22995;SDS011;11664;49.774;8.650;2023-05-07T05:24:03;13.40;;;3.85;;
22995;SDS011;11664;49.774;8.650;2023-05-07T05:26:29;4.82;;;4.53;;
22995;SDS011;11664;49.774;8.650;2023-05-07T05:29:07;5.55;;;5.15;;
22995;SDS011;11664;49.774;8.650;2023-05-07T05:31:32;5.40;;;5.10;;
22995;SDS011;11664;49.774;8.650;2023-05-07T05:34:04;4.57;;;4.38;;
22995;SDS011;11664;49.774;8.650;2023-05-07T05:36:33;5.28;;;4.95;;
22995;SDS011;11664;49.774;8.650;2023-05-07T05:39:10;4.75;;;4.55;;
22995;SDS011;11664;49.774;8.650;2023-05-07T05:41:42;3.60;;;3.40;;
22995;SDS011;11664;49.774;8.650;2023-05-07T05:44:14;3.90;;;3.70;;
22995;SDS011;11664;49.774;8.650;2023-05-07T05:46:39;3.75;;;3.55;;
22995;SDS011;11664;49.774;8.650;2023-05-07T05:49:11;5.85;;;4.80;;
22995;SDS011;11664;49.774;8.650;2023-05-07T05:51:43;3.50;;;3.30;;
22995;SDS011;11664;49.774;8.650;2023-05-07T05:54:08;3.70;;;3.50;;
22995;SDS011;11664;49.774;8.650;2023-05-07T05:56:46;4.30;;;4.10;;
22995;SDS011;11664;49.774;8.650;2023-05-07T05:59:15;3.80;;;3.60;;
22995;SDS011;11664;49.774;8.650;2023-05-07T06:01:44;4.13;;;3.83;;
22995;SDS011;11664;49.774;8.650;2023-05-07T06:04:11;5.68;;;4.47;;
22995;SDS011;11664;49.774;8.650;2023-05-07T06:06:36;3.83;;;3.53;;
22995;SDS011;11664;49.774;8.650;2023-05-07T06:09:14;3.60;;;3.40;;
22995;SDS011;11664;49.774;8.650;2023-05-07T06:11:40;4.97;;;4.70;;
22995;SDS011;11664;49.774;8.650;2023-05-07T06:14:09;4.95;;;4.60;;
22995;SDS011;11664;49.774;8.650;2023-05-07T06:16:40;5.78;;;5.38;;
22995;SDS011;11664;49.774;8.650;2023-05-07T06:19:09;6.18;;;5.68;;
22995;SDS011;11664;49.774;8.650;2023-05-07T06:21:41;4.72;;;4.53;;
22995;SDS011;11664;49.774;8.650;2023-05-07T06:24:09;3.67;;;3.47;;
22995;SDS011;11664;49.774;8.650;2023-05-07T06:26:41;3.28;;;3.08;;
22995;SDS011;11664;49.774;8.650;2023-05-07T06:29:13;3.22;;;3.03;;
22995;SDS011;11664;49.774;8.650;2023-05-07T06:31:41;3.67;;;3.38;;
22995;SDS011;11664;49.774;8.650;2023-05-07T06:34:07;4.65;;;3.65;;
22995;SDS011;11664;49.774;8.650;2023-05-07T06:36:35;3.97;;;3.67;;
22995;SDS011;11664;49.774;8.650;2023-05-07T06:39:10;4.43;;;4.13;;
22995;SDS011;11664;49.774;8.650;2023-05-07T06:41:36;3.65;;;3.45;;
22995;SDS011;11664;49.774;8.650;2023-05-07T06:44:13;4.30;;;4.07;;
22995;SDS011;11664;49.774;8.650;2023-05-07T06:46:46;4.47;;;4.18;;
22995;SDS011;11664;49.774;8.650;2023-05-07T06:49:23;4.57;;;4.28;;
22995;SDS011;11664;49.774;8.650;2023-05-07T06:51:52;4.85;;;4.32;;
22995;SDS011;11664;49.774;8.650;2023-05-07T06:54:18;4.43;;;4.13;;
22995;SDS011;11664;49.774;8.650;2023-05-07T06:56:43;4.10;;;3.90;;
22995;SDS011;11664;49.774;8.650;2023-05-07T06:59:14;3.92;;;3.72;;
22995;SDS011;11664;49.774;8.650;2023-05-07T07:01:41;5.32;;;4.90;;
22995;SDS011;11664;49.774;8.650;2023-05-07T07:04:09;3.42;;;3.25;;
22995;SDS011;11664;49.774;8.650;2023-05-07T07:06:36;5.28;;;4.97;;
22995;SDS011;11664;49.774;8.650;2023-05-07T07:09:01;3.80;;;3.50;;
22995;SDS011;11664;49.774;8.650;2023-05-07T07:11:30;3.78;;;3.58;;
22995;SDS011;11664;49.774;8.650;2023-05-07T07:13:56;5.75;;;5.45;;
22995;SDS011;11664;49.774;8.650;2023-05-07T07:16:24;9.75;;;9.23;;
22995;SDS011;11664;49.774;8.650;2023-05-07T07:18:50;12.68;;;11.88;;
22995;SDS011;11664;49.774;8.650;2023-05-07T07:21:16;6.32;;;5.93;;
22995;SDS011;11664;49.774;8.650;2023-05-07T07:23:41;5.97;;;5.63;;
22995;SDS011;11664;49.774;8.650;2023-05-07T07:26:10;4.85;;;4.45;;
22995;SDS011;11664;49.774;8.650;2023-05-07T07:28:41;4.97;;;4.68;;
22995;SDS011;11664;49.774;8.650;2023-05-07T07:31:30;5.03;;;4.40;;
22995;SDS011;11664;49.774;8.650;2023-05-07T07:34:08;4.10;;;3.90;;
22995;SDS011;11664;49.774;8.650;2023-05-07T07:36:34;5.43;;;5.00;;
22995;SDS011;11664;49.774;8.650;2023-05-07T07:39:30;4.95;;;4.55;;
22995;SDS011;11664;49.774;8.650;2023-05-07T07:42:02;4.90;;;4.60;;
22995;SDS011;11664;49.774;8.650;2023-05-07T07:44:33;6.15;;;5.80;;
22995;SDS011;11664;49.774;8.650;2023-05-07T07:47:05;6.28;;;5.88;;
22995;SDS011;11664;49.774;8.650;2023-05-07T07:52:00;4.72;;;4.53;;
22995;SDS011;11664;49.774;8.650;2023-05-07T07:54:28;5.00;;;4.60;;
22995;SDS011;11664;49.774;8.650;2023-05-07T07:56:57;3.97;;;3.78;;
22995;SDS011;11664;49.774;8.650;2023-05-07T07:59:29;4.10;;;3.70;;
22995;SDS011;11664;49.774;8.650;2023-05-07T08:01:57;3.60;;;3.40;;
22995;SDS011;11664;49.774;8.650;2023-05-07T08:04:29;3.80;;;3.60;;
22995;SDS011;11664;49.774;8.650;2023-05-07T08:07:04;5.97;;;5.68;;
22995;SDS011;11664;49.774;8.650;2023-05-07T08:09:39;5.32;;;5.00;;
22995;SDS011;11664;49.774;8.650;2023-05-07T08:15:02;6.90;;;6.50;;
22995;SDS011;11664;49.774;8.650;2023-05-07T08:17:41;11.50;;;10.85;;
22995;SDS011;11664;49.774;8.650;2023-05-07T08:20:07;5.60;;;5.20;;
22995;SDS011;11664;49.774;8.650;2023-05-07T08:22:36;4.68;;;4.30;;
22995;SDS011;11664;49.774;8.650;2023-05-07T08:25:05;5.90;;;5.53;;
22995;SDS011;11664;49.774;8.650;2023-05-07T08:27:37;9.95;;;9.25;;
22995;SDS011;11664;49.774;8.650;2023-05-07T08:30:03;11.98;;;11.27;;
22995;SDS011;11664;49.774;8.650;2023-05-07T08:32:32;8.25;;;7.85;;
22995;SDS011;11664;49.774;8.650;2023-05-07T08:35:04;7.07;;;6.75;;
22995;SDS011;11664;49.774;8.650;2023-05-07T08:37:36;4.55;;;4.25;;
22995;SDS011;11664;49.774;8.650;2023-05-07T08:42:35;6.00;;;5.65;;
22995;SDS011;11664;49.774;8.650;2023-05-07T08:45:07;5.90;;;5.50;;
22995;SDS011;11664;49.774;8.650;2023-05-07T08:47:44;6.35;;;5.95;;
22995;SDS011;11664;49.774;8.650;2023-05-07T08:50:12;5.38;;;4.97;;
22995;SDS011;11664;49.774;8.650;2023-05-07T08:52:47;4.88;;;4.60;;
22995;SDS011;11664;49.774;8.650;2023-05-07T08:55:12;4.88;;;4.47;;
22995;SDS011;11664;49.774;8.650;2023-05-07T08:57:43;5.85;;;5.45;;
22995;SDS011;11664;49.774;8.650;2023-05-07T09:00:08;5.80;;;5.25;;
22995;SDS011;11664;49.774;8.650;2023-05-07T09:02:47;5.00;;;4.70;;
22995;SDS011;11664;49.774;8.650;2023-05-07T09:05:19;4.53;;;4.10;;
22995;SDS011;11664;49.774;8.650;2023-05-07T09:10:20;3.95;;;3.65;;
22995;SDS011;11664;49.774;8.650;2023-05-07T09:12:49;5.75;;;5.30;;
22995;SDS011;11664;49.774;8.650;2023-05-07T09:15:18;4.95;;;4.65;;
22995;SDS011;11664;49.774;8.650;2023-05-07T09:17:44;5.32;;;5.00;;
22995;SDS011;11664;49.774;8.650;2023-05-07T09:20:10;7.05;;;6.63;;
22995;SDS011;11664;49.774;8.650;2023-05-07T09:22:42;11.18;;;10.52;;
22995;SDS011;11664;49.774;8.650;2023-05-07T09:25:12;13.90;;;13.10;;
22995;SDS011;11664;49.774;8.650;2023-05-07T09:27:52;29.42;;;27.85;;
22995;SDS011;11664;49.774;8.650;2023-05-07T09:30:18;12.55;;;11.85;;
22995;SDS011;11664;49.774;8.650;2023-05-07T09:32:43;21.80;;;20.60;;
22995;SDS011;11664;49.774;8.650;2023-05-07T09:35:18;16.85;;;15.90;;
22995;SDS011;11664;49.774;8.650;2023-05-07T09:37:46;12.13;;;11.43;;
22995;SDS011;11664;49.774;8.650;2023-05-07T09:43:13;13.98;;;13.18;;
22995;SDS011;11664;49.774;8.650;2023-05-07T09:45:38;12.70;;;12.00;;
22995;SDS011;11664;49.774;8.650;2023-05-07T09:48:05;6.95;;;6.55;;
22995;SDS011;11664;49.774;8.650;2023-05-07T09:50:44;6.35;;;5.95;;
22995;SDS011;11664;49.774;8.650;2023-05-07T09:55:44;8.48;;;7.88;;
22995;SDS011;11664;49.774;8.650;2023-05-07T09:58:11;6.80;;;6.40;;
22995;SDS011;11664;49.774;8.650;2023-05-07T10:00:37;9.07;;;8.55;;
22995;SDS011;11664;49.774;8.650;2023-05-07T10:03:06;7.82;;;7.30;;
22995;SDS011;11664;49.774;8.650;2023-05-07T10:05:34;10.40;;;9.70;;
22995;SDS011;11664;49.774;8.650;2023-05-07T10:08:00;9.35;;;8.85;;
22995;SDS011;11664;49.774;8.650;2023-05-07T10:10:27;7.57;;;6.97;;
22995;SDS011;11664;49.774;8.650;2023-05-07T10:12:54;11.55;;;10.90;;
22995;SDS011;11664;49.774;8.650;2023-05-07T10:15:19;7.43;;;7.00;;
22995;SDS011;11664;49.774;8.650;2023-05-07T10:17:46;7.78;;;7.28;;
22995;SDS011;11664;49.774;8.650;2023-05-07T10:20:13;10.07;;;9.48;;
22995;SDS011;11664;49.774;8.650;2023-05-07T10:22:40;6.22;;;5.93;;
22995;SDS011;11664;49.774;8.650;2023-05-07T10:25:13;7.95;;;7.53;;
22995;SDS011;11664;49.774;8.650;2023-05-07T10:27:47;11.50;;;10.65;;
22995;SDS011;11664;49.774;8.650;2023-05-07T10:33:01;11.20;;;10.43;;
22995;SDS011;11664;49.774;8.650;2023-05-07T10:35:37;13.32;;;12.60;;
22995;SDS011;11664;49.774;8.650;2023-05-07T10:38:05;14.73;;;13.93;;
22995;SDS011;11664;49.774;8.650;2023-05-07T10:40:32;18.42;;;16.77;;
22995;SDS011;11664;49.774;8.650;2023-05-07T10:42:58;17.48;;;16.42;;
22995;SDS011;11664;49.774;8.650;2023-05-07T10:45:26;22.35;;;21.15;;
22995;SDS011;11664;49.774;8.650;2023-05-07T10:50:40;10.65;;;10.02;;
22995;SDS011;11664;49.774;8.650;2023-05-07T10:55:48;6.68;;;6.18;;
22995;SDS011;11664;49.774;8.650;2023-05-07T10:58:37;5.85;;;4.40;;
22995;SDS011;11664;49.774;8.650;2023-05-07T11:01:02;5.50;;;5.10;;
22995;SDS011;11664;49.774;8.650;2023-05-07T11:03:28;4.45;;;4.15;;
22995;SDS011;11664;49.774;8.650;2023-05-07T11:06:14;5.68;;;5.28;;
22995;SDS011;11664;49.774;8.650;2023-05-07T11:08:56;6.18;;;5.70;;
22995;SDS011;11664;49.774;8.650;2023-05-07T11:14:13;6.00;;;5.65;;
22995;SDS011;11664;49.774;8.650;2023-05-07T11:16:39;16.38;;;15.48;;
22995;SDS011;11664;49.774;8.650;2023-05-07T11:19:06;9.60;;;8.98;;
22995;SDS011;11664;49.774;8.650;2023-05-07T11:21:38;11.00;;;10.20;;
22995;SDS011;11664;49.774;8.650;2023-05-07T11:24:06;9.90;;;9.30;;
22995;SDS011;11664;49.774;8.650;2023-05-07T11:26:41;13.90;;;12.40;;
22995;SDS011;11664;49.774;8.650;2023-05-07T11:29:13;13.52;;;12.70;;
22995;SDS011;11664;49.774;8.650;2023-05-07T11:31:52;11.38;;;10.73;;
22995;SDS011;11664;49.774;8.650;2023-05-07T11:34:22;9.93;;;9.23;;
22995;SDS011;11664;49.774;8.650;2023-05-07T11:36:49;13.07;;;12.10;;
22995;SDS011;11664;49.774;8.650;2023-05-07T11:39:28;8.48;;;7.97;;
22995;SDS011;11664;49.774;8.650;2023-05-07T11:41:57;6.97;;;6.47;;
22995;SDS011;11664;49.774;8.650;2023-05-07T11:44:40;6.32;;;5.80;;
22995;SDS011;11664;49.774;8.650;2023-05-07T11:47:11;22.80;;;21.55;;
22995;SDS011;11664;49.774;8.650;2023-05-07T11:49:41;15.45;;;14.65;;
22995;SDS011;11664;49.774;8.650;2023-05-07T11:52:08;11.82;;;11.10;;
22995;SDS011;11664;49.774;8.650;2023-05-07T11:54:37;6.15;;;5.75;;
22995;SDS011;11664;49.774;8.650;2023-05-07T11:57:02;6.13;;;5.53;;
22995;SDS011;11664;49.774;8.650;2023-05-07T11:59:28;4.97;;;4.60;;
22995;SDS011;11664;49.774;8.650;2023-05-07T12:01:57;10.60;;;9.95;;
22995;SDS011;11664;49.774;8.650;2023-05-07T12:04:24;6.68;;;6.20;;
22995;SDS011;11664;49.774;8.650;2023-05-07T12:06:53;5.93;;;5.63;;
22995;SDS011;11664;49.774;8.650;2023-05-07T12:09:20;7.07;;;6.57;;
22995;SDS011;11664;49.774;8.650;2023-05-07T12:11:46;5.75;;;5.35;;
22995;SDS011;11664;49.774;8.650;2023-05-07T12:14:11;5.82;;;5.32;;
22995;SDS011;11664;49.774;8.650;2023-05-07T12:16:38;4.75;;;4.45;;
22995;SDS011;11664;49.774;8.650;2023-05-07T12:19:05;4.70;;;4.40;;
22995;SDS011;11664;49.774;8.650;2023-05-07T12:21:33;4.00;;;3.80;;
22995;SDS011;11664;49.774;8.650;2023-05-07T12:23:58;4.15;;;3.92;;
22995;SDS011;11664;49.774;8.650;2023-05-07T12:26:25;10.32;;;5.10;;
22995;SDS011;11664;49.774;8.650;2023-05-07T12:28:51;6.50;;;6.10;;
22995;SDS011;11664;49.774;8.650;2023-05-07T12:31:17;4.80;;;4.40;;
22995;SDS011;11664;49.774;8.650;2023-05-07T12:33:42;5.07;;;4.68;;
22995;SDS011;11664;49.774;8.650;2023-05-07T12:36:11;4.75;;;4.45;;
22995;SDS011;11664;49.774;8.650;2023-05-07T12:38:38;6.60;;;6.05;;
22995;SDS011;11664;49.774;8.650;2023-05-07T12:41:05;4.72;;;4.35;;
22995;SDS011;11664;49.774;8.650;2023-05-07T12:43:32;7.00;;;6.57;;
22995;SDS011;11664;49.774;8.650;2023-05-07T12:45:59;6.70;;;6.25;;
22995;SDS011;11664;49.774;8.650;2023-05-07T12:48:26;4.70;;;4.40;;
22995;SDS011;11664;49.774;8.650;2023-05-07T12:50:53;5.72;;;5.32;;
22995;SDS011;11664;49.774;8.650;2023-05-07T12:53:20;4.00;;;3.67;;
22995;SDS011;11664;49.774;8.650;2023-05-07T12:55:47;6.82;;;6.43;;
22995;SDS011;11664;49.774;8.650;2023-05-07T12:58:17;5.82;;;5.43;;
22995;SDS011;11664;49.774;8.650;2023-05-07T13:00:43;5.32;;;4.93;;
22995;SDS011;11664;49.774;8.650;2023-05-07T13:03:10;5.00;;;4.60;;
22995;SDS011;11664;49.774;8.650;2023-05-07T13:05:36;4.20;;;3.90;;
22995;SDS011;11664;49.774;8.650;2023-05-07T13:08:02;4.90;;;4.50;;
22995;SDS011;11664;49.774;8.650;2023-05-07T13:10:29;5.68;;;5.28;;
22995;SDS011;11664;49.774;8.650;2023-05-07T13:12:54;5.07;;;4.78;;
22995;SDS011;11664;49.774;8.650;2023-05-07T13:15:20;6.40;;;6.00;;
22995;SDS011;11664;49.774;8.650;2023-05-07T13:17:46;6.63;;;6.22;;
22995;SDS011;11664;49.774;8.650;2023-05-07T13:20:12;7.03;;;6.63;;
22995;SDS011;11664;49.774;8.650;2023-05-07T13:22:38;5.53;;;5.13;;
22995;SDS011;11664;49.774;8.650;2023-05-07T13:25:04;4.75;;;4.45;;
22995;SDS011;11664;49.774;8.650;2023-05-07T13:27:30;6.13;;;4.30;;
22995;SDS011;11664;49.774;8.650;2023-05-07T13:29:55;9.55;;;8.73;;
22995;SDS011;11664;49.774;8.650;2023-05-07T13:32:21;7.15;;;4.68;;
22995;SDS011;11664;49.774;8.650;2023-05-07T13:34:47;7.70;;;7.20;;
22995;SDS011;11664;49.774;8.650;2023-05-07T13:37:13;10.38;;;9.52;;
22995;SDS011;11664;49.774;8.650;2023-05-07T13:39:38;4.75;;;4.43;;
22995;SDS011;11664;49.774;8.650;2023-05-07T13:42:04;7.35;;;6.88;;
22995;SDS011;11664;49.774;8.650;2023-05-07T13:44:29;9.60;;;9.00;;
22995;SDS011;11664;49.774;8.650;2023-05-07T13:46:55;6.43;;;6.03;;
22995;SDS011;11664;49.774;8.650;2023-05-07T13:49:20;4.68;;;4.38;;
22995;SDS011;11664;49.774;8.650;2023-05-07T13:51:46;10.15;;;9.60;;
22995;SDS011;11664;49.774;8.650;2023-05-07T13:54:11;5.30;;;4.90;;
22995;SDS011;11664;49.774;8.650;2023-05-07T13:56:37;4.78;;;4.32;;
22995;SDS011;11664;49.774;8.650;2023-05-07T13:59:02;8.82;;;8.25;;
22995;SDS011;11664;49.774;8.650;2023-05-07T14:01:28;14.02;;;13.25;;
22995;SDS011;11664;49.774;8.650;2023-05-07T14:03:53;5.88;;;5.55;;
22995;SDS011;11664;49.774;8.650;2023-05-07T14:06:20;20.25;;;19.08;;
22995;SDS011;11664;49.774;8.650;2023-05-07T14:08:46;8.60;;;8.10;;
22995;SDS011;11664;49.774;8.650;2023-05-07T14:11:12;25.38;;;23.98;;
22995;SDS011;11664;49.774;8.650;2023-05-07T14:13:37;21.85;;;20.67;;
22995;SDS011;11664;49.774;8.650;2023-05-07T14:16:03;6.40;;;6.00;;
22995;SDS011;11664;49.774;8.650;2023-05-07T14:18:29;7.95;;;7.45;;
22995;SDS011;11664;49.774;8.650;2023-05-07T14:20:55;6.60;;;6.13;;
22995;SDS011;11664;49.774;8.650;2023-05-07T14:23:20;6.00;;;5.60;;
22995;SDS011;11664;49.774;8.650;2023-05-07T14:25:51;6.95;;;6.50;;
22995;SDS011;11664;49.774;8.650;2023-05-07T14:28:19;5.90;;;5.45;;
22995;SDS011;11664;49.774;8.650;2023-05-07T14:30:45;5.75;;;5.35;;
22995;SDS011;11664;49.774;8.650;2023-05-07T14:33:12;6.43;;;5.95;;
22995;SDS011;11664;49.774;8.650;2023-05-07T14:35:37;5.60;;;5.20;;
22995;SDS011;11664;49.774;8.650;2023-05-07T14:38:03;5.10;;;4.80;;
22995;SDS011;11664;49.774;8.650;2023-05-07T14:40:28;7.07;;;6.47;;
22995;SDS011;11664;49.774;8.650;2023-05-07T14:42:54;5.65;;;5.25;;
22995;SDS011;11664;49.774;8.650;2023-05-07T14:45:20;4.53;;;4.22;;
22995;SDS011;11664;49.774;8.650;2023-05-07T14:47:46;4.53;;;4.13;;
22995;SDS011;11664;49.774;8.650;2023-05-07T14:50:11;5.57;;;5.07;;
22995;SDS011;11664;49.774;8.650;2023-05-07T14:52:40;8.50;;;4.22;;
22995;SDS011;11664;49.774;8.650;2023-05-07T14:55:05;4.53;;;4.22;;
22995;SDS011;11664;49.774;8.650;2023-05-07T14:57:31;4.90;;;4.55;;
22995;SDS011;11664;49.774;8.650;2023-05-07T14:59:59;3.83;;;3.63;;
22995;SDS011;11664;49.774;8.650;2023-05-07T15:02:26;4.07;;;3.78;;
22995;SDS011;11664;49.774;8.650;2023-05-07T15:04:52;4.70;;;4.32;;
22995;SDS011;11664;49.774;8.650;2023-05-07T15:07:17;4.60;;;4.30;;
22995;SDS011;11664;49.774;8.650;2023-05-07T15:09:43;4.63;;;4.32;;
22995;SDS011;11664;49.774;8.650;2023-05-07T15:12:09;4.95;;;4.63;;
22995;SDS011;11664;49.774;8.650;2023-05-07T15:14:36;4.20;;;3.88;;
22995;SDS011;11664;49.774;8.650;2023-05-07T15:17:04;6.20;;;5.72;;
22995;SDS011;11664;49.774;8.650;2023-05-07T15:19:30;5.75;;;5.35;;
22995;SDS011;11664;49.774;8.650;2023-05-07T15:21:57;5.28;;;4.88;;
22995;SDS011;11664;49.774;8.650;2023-05-07T15:24:24;4.80;;;4.50;;
22995;SDS011;11664;49.774;8.650;2023-05-07T15:26:51;8.60;;;8.05;;
22995;SDS011;11664;49.774;8.650;2023-05-07T15:29:17;6.10;;;5.70;;
22995;SDS011;11664;49.774;8.650;2023-05-07T15:31:42;6.82;;;6.30;;
22995;SDS011;11664;49.774;8.650;2023-05-07T15:34:08;10.93;;;10.18;;
22995;SDS011;11664;49.774;8.650;2023-05-07T15:36:34;7.50;;;7.10;;
22995;SDS011;11664;49.774;8.650;2023-05-07T15:38:59;9.52;;;8.98;;
22995;SDS011;11664;49.774;8.650;2023-05-07T15:41:27;19.58;;;18.40;;